createdAt,value
2017-09-21T00:01:18.463Z,1021.91
2017-09-21T00:02:40.638Z,1021.93
2017-09-21T00:04:02.473Z,1021.94
2017-09-21T00:05:24.904Z,1021.91
2017-09-21T00:06:46.401Z,1021.93
2017-09-21T00:08:08.543Z,1021.93
2017-09-21T00:09:31.015Z,1021.99
2017-09-21T00:10:53.117Z,1022.01
2017-09-21T00:12:15.585Z,1022
2017-09-21T00:13:37.780Z,1022.03
2017-09-21T00:14:59.264Z,1022.02
2017-09-21T00:16:21.090Z,1022
2017-09-21T00:17:43.210Z,1021.98
2017-09-21T00:19:04.770Z,1022.03
2017-09-21T00:20:26.604Z,1021.96
2017-09-21T00:21:49.033Z,1021.94
2017-09-21T00:23:11.214Z,1021.95
2017-09-21T00:24:33.012Z,1021.92
2017-09-21T00:25:55.200Z,1021.89
2017-09-21T00:27:18.489Z,1021.91
2017-09-21T00:28:40.324Z,1021.86
2017-09-21T00:30:02.794Z,1021.9
2017-09-21T00:31:24.660Z,1021.85
2017-09-21T00:32:47.087Z,1021.83
2017-09-21T00:34:09.230Z,1021.82
2017-09-21T00:35:30.734Z,1021.84
2017-09-21T00:36:52.913Z,1021.78
2017-09-21T00:38:15.681Z,1021.78
2017-09-21T00:39:37.563Z,1021.74
2017-09-21T00:40:58.755Z,1021.75
2017-09-21T00:42:20.554Z,1021.74
2017-09-21T00:43:42.677Z,1021.73
2017-09-21T00:45:04.543Z,1021.77
2017-09-21T00:46:26.673Z,1021.79
2017-09-21T00:47:49.113Z,1021.78
2017-09-21T00:49:11.215Z,1021.8
2017-09-21T00:50:33.680Z,1021.77
2017-09-21T00:51:55.486Z,1021.8
2017-09-21T00:53:17.413Z,1021.79
2017-09-21T00:54:39.476Z,1021.79
2017-09-21T00:56:01.313Z,1021.75
2017-09-21T00:57:23.433Z,1021.79
2017-09-21T00:58:45.252Z,1021.75
2017-09-21T01:00:07.325Z,1021.73
2017-09-21T01:01:29.459Z,1021.76
2017-09-21T01:02:51.397Z,1021.7
2017-09-21T01:04:12.893Z,1021.73
2017-09-21T01:05:34.734Z,1021.73
2017-09-21T01:06:56.866Z,1021.76
2017-09-21T01:08:18.416Z,1021.79
2017-09-21T01:09:40.873Z,1021.77
2017-09-21T01:11:02.021Z,1021.8
2017-09-21T01:12:24.198Z,1021.83
2017-09-21T01:13:46.342Z,1021.84
2017-09-21T01:15:08.257Z,1021.85
2017-09-21T01:16:30.786Z,1021.83
2017-09-21T01:17:53.251Z,1021.89
2017-09-21T01:19:15.383Z,1021.89
2017-09-21T01:20:36.862Z,1021.92
2017-09-21T01:21:59.262Z,1021.89
2017-09-21T01:23:20.578Z,1021.88
2017-09-21T01:24:42.386Z,1021.87
2017-09-21T01:26:04.191Z,1021.87
2017-09-21T01:27:26.353Z,1021.88
2017-09-21T01:28:48.537Z,1021.9
2017-09-21T01:30:10.663Z,1021.9
2017-09-21T01:31:32.797Z,1021.85
2017-09-21T01:32:54.876Z,1021.93
2017-09-21T01:34:17.002Z,1021.89
2017-09-21T01:35:38.863Z,1021.93
2017-09-21T01:37:00.993Z,1021.89
2017-09-21T01:38:23.154Z,1021.87
2017-09-21T01:39:45.283Z,1021.88
2017-09-21T01:41:07.413Z,1021.89
2017-09-21T01:42:29.034Z,1021.8
2017-09-21T01:43:51.195Z,1021.8
2017-09-21T01:45:13.053Z,1021.79
2017-09-21T01:46:34.932Z,1021.8
2017-09-21T01:47:56.752Z,1021.81
2017-09-21T01:49:19.261Z,1021.8
2017-09-21T01:50:41.083Z,1021.82
2017-09-21T01:52:02.904Z,1021.85
2017-09-21T01:53:25.030Z,1021.78
2017-09-21T01:54:46.791Z,1021.79
2017-09-21T01:56:07.967Z,1021.74
2017-09-21T01:57:30.131Z,1021.74
2017-09-21T01:58:51.967Z,1021.81
2017-09-21T02:00:13.384Z,1021.83
2017-09-21T02:01:35.241Z,1021.84
2017-09-21T02:02:57.464Z,1021.84
2017-09-21T02:04:18.673Z,1021.83
2017-09-21T02:05:41.154Z,1021.8
2017-09-21T02:07:03.324Z,1021.83
2017-09-21T02:08:25.574Z,1021.77
2017-09-21T02:09:47.372Z,1021.75
2017-09-21T02:11:09.780Z,1021.77
2017-09-21T02:12:32.433Z,1021.77
2017-09-21T02:13:54.242Z,1021.7
2017-09-21T02:15:15.413Z,1021.72
2017-09-21T02:16:37.247Z,1021.68
2017-09-21T02:17:59.044Z,1021.64
2017-09-21T02:19:21.172Z,1021.71
2017-09-21T02:20:42.642Z,1021.73
2017-09-21T02:22:05.181Z,1021.75
2017-09-21T02:23:27.003Z,1021.79
2017-09-21T02:24:48.186Z,1021.74
2017-09-21T02:26:10.491Z,1021.84
2017-09-21T02:27:32.601Z,1021.76
2017-09-21T02:28:54.480Z,1021.77
2017-09-21T02:30:16.293Z,1021.81
2017-09-21T02:31:38.113Z,1021.79
2017-09-21T02:33:00.225Z,1021.78
2017-09-21T02:34:22.067Z,1021.79
2017-09-21T02:35:43.563Z,1021.78
2017-09-21T02:37:05.697Z,1021.76
2017-09-21T02:38:27.862Z,1021.75
2017-09-21T02:39:49.702Z,1021.71
2017-09-21T02:41:11.531Z,1021.72
2017-09-21T02:42:33.382Z,1021.71
2017-09-21T02:43:55.167Z,1021.62
2017-09-21T02:45:17.613Z,1021.58
2017-09-21T02:46:39.437Z,1021.62
2017-09-21T02:48:01.341Z,1021.58
2017-09-21T02:49:23.143Z,1021.55
2017-09-21T02:50:43.993Z,1021.56
2017-09-21T02:52:06.183Z,1021.55
2017-09-21T02:53:27.994Z,1021.59
2017-09-21T02:54:50.413Z,1021.61
2017-09-21T02:56:12.884Z,1021.65
2017-09-21T02:57:35.034Z,1021.68
2017-09-21T02:58:57.173Z,1021.68
2017-09-21T03:00:19.276Z,1021.67
2017-09-21T03:01:41.113Z,1021.71
2017-09-21T03:03:03.573Z,1021.73
2017-09-21T03:04:25.076Z,1021.74
2017-09-21T03:05:47.236Z,1021.72
2017-09-21T03:07:09.372Z,1021.72
2017-09-21T03:08:31.193Z,1021.71
2017-09-21T03:09:53.316Z,1021.68
2017-09-21T03:11:15.043Z,1021.7
2017-09-21T03:12:37.181Z,1021.75
2017-09-21T03:13:59.302Z,1021.74
2017-09-21T03:15:21.113Z,1021.8
2017-09-21T03:16:43.214Z,1021.8
2017-09-21T03:18:05.665Z,1021.79
2017-09-21T03:19:27.152Z,1021.77
2017-09-21T03:20:49.606Z,1021.78
2017-09-21T03:22:11.687Z,1021.82
2017-09-21T03:23:34.119Z,1021.81
2017-09-21T03:24:56.574Z,1021.77
2017-09-21T03:26:18.103Z,1021.77
2017-09-21T03:27:40.392Z,1021.78
2017-09-21T03:29:02.218Z,1021.73
2017-09-21T03:30:24.458Z,1021.76
2017-09-21T03:31:46.970Z,1021.71
2017-09-21T03:33:08.762Z,1021.73
2017-09-21T03:34:29.943Z,1021.64
2017-09-21T03:35:51.775Z,1021.65
2017-09-21T03:37:13.581Z,1021.6
2017-09-21T03:38:35.645Z,1021.56
2017-09-21T03:39:57.435Z,1021.54
2017-09-21T03:41:19.696Z,1021.46
2017-09-21T03:42:41.201Z,1021.48
2017-09-21T03:44:03.263Z,1021.52
2017-09-21T03:45:25.068Z,1021.5
2017-09-21T03:46:47.214Z,1021.52
2017-09-21T03:48:09.020Z,1021.51
2017-09-21T03:49:30.445Z,1021.53
2017-09-21T03:50:51.671Z,1021.57
2017-09-21T03:52:13.494Z,1021.57
2017-09-21T03:53:35.136Z,1021.62
2017-09-21T03:54:57.373Z,1021.68
2017-09-21T03:56:19.834Z,1021.65
2017-09-21T03:57:41.972Z,1021.67
2017-09-21T03:59:03.560Z,1021.7
2017-09-21T04:00:25.983Z,1021.7
2017-09-21T04:01:47.562Z,1021.68
2017-09-21T04:03:09.685Z,1021.68
2017-09-21T04:04:31.803Z,1021.7
2017-09-21T04:05:53.975Z,1021.7
2017-09-21T04:07:16.095Z,1021.72
2017-09-21T04:08:37.571Z,1021.72
2017-09-21T04:09:59.380Z,1021.72
2017-09-21T04:11:21.618Z,1021.75
2017-09-21T04:12:43.782Z,1021.71
2017-09-21T04:14:05.315Z,1021.72
2017-09-21T04:15:26.895Z,1021.69
2017-09-21T04:16:49.304Z,1021.73
2017-09-21T04:18:11.127Z,1021.77
2017-09-21T04:19:32.962Z,1021.8
2017-09-21T04:20:55.444Z,1021.79
2017-09-21T04:22:17.932Z,1021.86
2017-09-21T04:23:40.066Z,1021.88
2017-09-21T04:25:02.209Z,1021.92
2017-09-21T04:26:24.029Z,1021.94
2017-09-21T04:27:45.837Z,1021.91
2017-09-21T04:29:08.286Z,1021.92
2017-09-21T04:30:30.193Z,1021.86
2017-09-21T04:31:51.694Z,1021.87
2017-09-21T04:33:14.523Z,1021.9
2017-09-21T04:34:36.339Z,1021.93
2017-09-21T04:35:58.820Z,1021.94
2017-09-21T04:37:19.980Z,1021.95
2017-09-21T04:38:42.780Z,1021.91
2017-09-21T04:40:04.992Z,1021.92
2017-09-21T04:41:27.464Z,1021.92
2017-09-21T04:42:49.325Z,1021.91
2017-09-21T04:44:11.083Z,1021.94
2017-09-21T04:45:33.539Z,1021.98
2017-09-21T04:46:55.063Z,1021.99
2017-09-21T04:48:17.278Z,1021.95
2017-09-21T04:49:39.714Z,1021.94
2017-09-21T04:51:01.862Z,1021.94
2017-09-21T04:52:23.153Z,1021.92
2017-09-21T04:53:45.272Z,1021.96
2017-09-21T04:55:07.097Z,1021.94
2017-09-21T04:56:29.236Z,1021.84
2017-09-21T04:57:50.851Z,1021.91
2017-09-21T04:59:13.373Z,1021.86
2017-09-21T05:00:35.432Z,1021.91
2017-09-21T05:01:57.229Z,1021.84
2017-09-21T05:03:19.691Z,1021.89
2017-09-21T05:04:41.979Z,1021.96
2017-09-21T05:06:03.549Z,1021.94
2017-09-21T05:07:25.033Z,1022
2017-09-21T05:08:47.493Z,1021.94
2017-09-21T05:10:08.728Z,1021.99
2017-09-21T05:11:30.482Z,1021.99
2017-09-21T05:12:52.941Z,1021.98
2017-09-21T05:14:15.423Z,1021.99
2017-09-21T05:15:37.873Z,1022
2017-09-21T05:16:59.656Z,1022.03
2017-09-21T05:18:21.805Z,1021.96
2017-09-21T05:19:43.956Z,1022.01
2017-09-21T05:21:06.202Z,1022.02
2017-09-21T05:22:27.721Z,1022.05
2017-09-21T05:23:49.566Z,1022.06
2017-09-21T05:25:11.081Z,1022.06
2017-09-21T05:26:32.583Z,1022.07
2017-09-21T05:27:54.799Z,1022.07
2017-09-21T05:29:16.321Z,1022.09
2017-09-21T05:30:38.543Z,1022.13
2017-09-21T05:32:01.012Z,1022.11
2017-09-21T05:33:23.110Z,1022.07
2017-09-21T05:34:44.602Z,1022.08
2017-09-21T05:36:06.482Z,1022.01
2017-09-21T05:37:28.633Z,1022.01
2017-09-21T05:38:51.263Z,1021.99
2017-09-21T05:40:13.404Z,1021.97
2017-09-21T05:41:35.883Z,1021.98
2017-09-21T05:42:57.390Z,1021.99
2017-09-21T05:44:19.880Z,1022
2017-09-21T05:45:41.400Z,1022
2017-09-21T05:47:02.580Z,1022.03
2017-09-21T05:48:24.082Z,1021.99
2017-09-21T05:49:45.954Z,1022.03
2017-09-21T05:51:08.073Z,1022.03
2017-09-21T05:52:29.935Z,1022.06
2017-09-21T05:53:52.193Z,1022.01
2017-09-21T05:55:13.616Z,1022.03
2017-09-21T05:56:35.757Z,1022.11
2017-09-21T05:57:57.937Z,1022.15
2017-09-21T05:59:19.750Z,1022.19
2017-09-21T06:00:42.310Z,1022.17
2017-09-21T06:02:04.889Z,1022.18
2017-09-21T06:03:26.492Z,1022.25
2017-09-21T06:04:48.973Z,1022.2
2017-09-21T06:06:11.513Z,1022.22
2017-09-21T06:07:33.634Z,1022.21
2017-09-21T06:08:55.772Z,1022.21
2017-09-21T06:10:17.927Z,1022.2
2017-09-21T06:11:40.070Z,1022.16
2017-09-21T06:13:01.587Z,1022.2
2017-09-21T06:14:23.733Z,1022.23
2017-09-21T06:15:45.903Z,1022.15
2017-09-21T06:17:08.122Z,1022.14
2017-09-21T06:18:30.254Z,1022.17
2017-09-21T06:19:52.423Z,1022.12
2017-09-21T06:21:14.373Z,1022.16
2017-09-21T06:22:36.798Z,1022.16
2017-09-21T06:23:59.273Z,1022.14
2017-09-21T06:25:21.082Z,1022.17
2017-09-21T06:26:43.222Z,1022.12
2017-09-21T06:28:05.045Z,1022.16
2017-09-21T06:29:27.230Z,1022.15
2017-09-21T06:30:49.697Z,1022.21
2017-09-21T06:32:12.173Z,1022.2
2017-09-21T06:33:34.323Z,1022.28
2017-09-21T06:34:56.780Z,1022.29
2017-09-21T06:36:19.266Z,1022.3
2017-09-21T06:37:41.157Z,1022.28
2017-09-21T06:39:02.973Z,1022.29
2017-09-21T06:40:25.611Z,1022.35
2017-09-21T06:41:47.723Z,1022.3
2017-09-21T06:43:10.193Z,1022.34
2017-09-21T06:44:31.714Z,1022.38
2017-09-21T06:45:53.864Z,1022.4
2017-09-21T06:47:16.035Z,1022.47
2017-09-21T06:48:38.665Z,1022.4
2017-09-21T06:50:01.063Z,1022.47
2017-09-21T06:51:23.204Z,1022.45
2017-09-21T06:52:45.080Z,1022.44
2017-09-21T06:54:07.236Z,1022.5
2017-09-21T06:55:29.681Z,1022.49
2017-09-21T06:56:52.163Z,1022.51
2017-09-21T06:58:13.995Z,1022.55
2017-09-21T06:59:36.132Z,1022.63
2017-09-21T07:00:57.920Z,1022.66
2017-09-21T07:02:20.377Z,1022.61
2017-09-21T07:03:42.602Z,1022.64
2017-09-21T07:05:04.413Z,1022.62
2017-09-21T07:06:27.242Z,1022.68
2017-09-21T07:07:49.384Z,1022.7
2017-09-21T07:09:11.272Z,1022.59
2017-09-21T07:10:33.099Z,1022.64
2017-09-21T07:11:55.587Z,1022.68
2017-09-21T07:13:17.573Z,1022.7
2017-09-21T07:14:40.027Z,1022.68
2017-09-21T07:16:02.613Z,1022.65
2017-09-21T07:17:24.391Z,1022.76
2017-09-21T07:18:46.546Z,1022.74
2017-09-21T07:20:08.691Z,1022.72
2017-09-21T07:21:30.493Z,1022.79
2017-09-21T07:22:52.922Z,1022.71
2017-09-21T07:24:14.753Z,1022.66
2017-09-21T07:25:36.883Z,1022.72
2017-09-21T07:26:58.742Z,1022.71
2017-09-21T07:28:21.140Z,1022.65
2017-09-21T07:29:42.963Z,1022.64
2017-09-21T07:31:04.772Z,1022.64
2017-09-21T07:32:26.940Z,1022.65
2017-09-21T07:33:49.341Z,1022.64
2017-09-21T07:35:11.273Z,1022.66
2017-09-21T07:36:33.424Z,1022.63
2017-09-21T07:37:55.929Z,1022.63
2017-09-21T07:39:18.743Z,1022.58
2017-09-21T07:40:40.565Z,1022.62
2017-09-21T07:42:02.717Z,1022.68
2017-09-21T07:43:25.176Z,1022.63
2017-09-21T07:44:47.016Z,1022.66
2017-09-21T07:46:09.483Z,1022.69
2017-09-21T07:47:31.634Z,1022.71
2017-09-21T07:48:53.772Z,1022.71
2017-09-21T07:50:16.553Z,1022.71
2017-09-21T07:51:38.422Z,1022.68
2017-09-21T07:53:00.232Z,1022.77
2017-09-21T07:54:22.712Z,1022.79
2017-09-21T07:55:45.164Z,1022.75
2017-09-21T07:57:07.333Z,1022.78
2017-09-21T07:58:29.472Z,1022.81
2017-09-21T07:59:51.940Z,1022.82
2017-09-21T08:01:14.121Z,1022.82
2017-09-21T08:02:36.589Z,1022.84
2017-09-21T08:03:58.731Z,1022.82
2017-09-21T08:05:20.882Z,1022.82
2017-09-21T08:06:43.264Z,1022.81
2017-09-21T08:08:05.864Z,1022.77
2017-09-21T08:09:28.052Z,1022.84
2017-09-21T08:10:50.196Z,1022.81
2017-09-21T08:12:12.305Z,1022.82
2017-09-21T08:13:34.565Z,1022.82
2017-09-21T08:14:56.751Z,1022.78
2017-09-21T08:16:19.272Z,1022.77
2017-09-21T08:17:41.765Z,1022.74
2017-09-21T08:19:02.608Z,1022.74
2017-09-21T08:20:24.841Z,1022.74
2017-09-21T08:21:46.383Z,1022.77
2017-09-21T08:23:08.235Z,1022.75
2017-09-21T08:24:30.436Z,1022.79
2017-09-21T08:25:52.092Z,1022.75
2017-09-21T08:27:14.235Z,1022.78
2017-09-21T08:28:36.666Z,1022.82
2017-09-21T08:29:58.151Z,1022.82
2017-09-21T08:31:20.313Z,1022.82
2017-09-21T08:32:42.453Z,1022.8
2017-09-21T08:34:04.942Z,1022.82
2017-09-21T08:35:26.804Z,1022.82
2017-09-21T08:36:48.943Z,1022.78
2017-09-21T08:38:11.382Z,1022.83
2017-09-21T08:39:33.017Z,1022.84
2017-09-21T08:40:54.536Z,1022.83
2017-09-21T08:42:16.698Z,1022.79
2017-09-21T08:43:38.858Z,1022.83
2017-09-21T08:45:01.371Z,1022.8
2017-09-21T08:46:23.272Z,1022.82
2017-09-21T08:47:45.546Z,1022.8
2017-09-21T08:49:08.033Z,1022.82
2017-09-21T08:50:29.963Z,1022.78
2017-09-21T08:51:51.820Z,1022.79
2017-09-21T08:53:14.303Z,1022.75
2017-09-21T08:54:36.788Z,1022.78
2017-09-21T08:55:58.578Z,1022.78
2017-09-21T08:57:20.834Z,1022.74
2017-09-21T08:58:43.376Z,1022.74
2017-09-21T09:00:05.856Z,1022.69
2017-09-21T09:01:27.993Z,1022.68
2017-09-21T09:02:49.512Z,1022.69
2017-09-21T09:04:11.026Z,1022.64
2017-09-21T09:05:32.843Z,1022.63
2017-09-21T09:06:55.010Z,1022.63
2017-09-21T09:08:16.843Z,1022.61
2017-09-21T09:09:38.361Z,1022.59
2017-09-21T09:10:59.885Z,1022.56
2017-09-21T09:12:22.862Z,1022.59
2017-09-21T09:13:45.013Z,1022.61
2017-09-21T09:15:07.138Z,1022.59
2017-09-21T09:16:28.963Z,1022.6
2017-09-21T09:17:51.587Z,1022.61
2017-09-21T09:19:13.515Z,1022.59
2017-09-21T09:20:35.121Z,1022.61
2017-09-21T09:21:56.606Z,1022.64
2017-09-21T09:23:19.444Z,1022.61
2017-09-21T09:24:41.584Z,1022.62
2017-09-21T09:26:03.071Z,1022.61
2017-09-21T09:27:24.583Z,1022.6
2017-09-21T09:28:47.044Z,1022.59
2017-09-21T09:30:09.513Z,1022.61
2017-09-21T09:31:31.819Z,1022.58
2017-09-21T09:32:54.363Z,1022.58
2017-09-21T09:34:17.173Z,1022.54
2017-09-21T09:35:39.312Z,1022.5
2017-09-21T09:37:01.545Z,1022.58
2017-09-21T09:38:23.434Z,1022.56
2017-09-21T09:39:45.964Z,1022.52
2017-09-21T09:41:08.426Z,1022.58
2017-09-21T09:42:30.572Z,1022.5
2017-09-21T09:43:52.773Z,1022.5
2017-09-21T09:45:14.955Z,1022.51
2017-09-21T09:46:37.099Z,1022.49
2017-09-21T09:47:59.243Z,1022.41
2017-09-21T09:49:21.725Z,1022.44
2017-09-21T09:50:44.542Z,1022.38
2017-09-21T09:52:06.384Z,1022.4
2017-09-21T09:53:28.533Z,1022.43
2017-09-21T09:54:51.122Z,1022.42
2017-09-21T09:56:12.982Z,1022.43
2017-09-21T09:57:35.143Z,1022.42
2017-09-21T09:58:57.779Z,1022.42
2017-09-21T10:00:19.938Z,1022.4
2017-09-21T10:01:42.761Z,1022.4
2017-09-21T10:03:04.993Z,1022.43
2017-09-21T10:04:27.247Z,1022.42
2017-09-21T10:05:49.430Z,1022.43
2017-09-21T10:07:11.824Z,1022.43
2017-09-21T10:08:33.953Z,1022.48
2017-09-21T10:09:55.803Z,1022.51
2017-09-21T10:11:17.925Z,1022.58
2017-09-21T10:12:40.415Z,1022.54
2017-09-21T10:14:02.989Z,1022.48
2017-09-21T10:15:25.109Z,1022.51
2017-09-21T10:16:47.037Z,1022.43
2017-09-21T10:18:09.766Z,1022.43
2017-09-21T10:19:31.902Z,1022.44
2017-09-21T10:20:53.733Z,1022.4
2017-09-21T10:22:16.005Z,1022.35
2017-09-21T10:23:37.866Z,1022.37
2017-09-21T10:24:59.700Z,1022.35
2017-09-21T10:26:21.941Z,1022.46
2017-09-21T10:27:44.142Z,1022.39
2017-09-21T10:29:06.631Z,1022.42
2017-09-21T10:30:28.448Z,1022.41
2017-09-21T10:31:50.283Z,1022.37
2017-09-21T10:33:12.416Z,1022.38
2017-09-21T10:34:34.925Z,1022.37
2017-09-21T10:35:57.074Z,1022.35
2017-09-21T10:37:19.203Z,1022.36
2017-09-21T10:38:41.345Z,1022.36
2017-09-21T10:40:03.883Z,1022.35
2017-09-21T10:41:25.718Z,1022.38
2017-09-21T10:42:47.554Z,1022.39
2017-09-21T10:44:10.028Z,1022.39
2017-09-21T10:45:32.844Z,1022.38
2017-09-21T10:46:55.325Z,1022.35
2017-09-21T10:48:17.830Z,1022.42
2017-09-21T10:49:40.306Z,1022.41
2017-09-21T10:51:02.447Z,1022.39
2017-09-21T10:52:24.596Z,1022.4
2017-09-21T10:53:46.430Z,1022.44
2017-09-21T10:55:07.613Z,1022.44
2017-09-21T10:56:29.472Z,1022.44
2017-09-21T10:57:51.953Z,1022.48
2017-09-21T10:59:13.504Z,1022.45
2017-09-21T11:00:36.013Z,1022.46
2017-09-21T11:01:58.494Z,1022.44
2017-09-21T11:03:20.314Z,1022.46
2017-09-21T11:04:42.465Z,1022.46
2017-09-21T11:06:04.288Z,1022.44
2017-09-21T11:07:27.107Z,1022.42
2017-09-21T11:08:48.942Z,1022.47
2017-09-21T11:10:11.147Z,1022.45
2017-09-21T11:11:32.341Z,1022.43
2017-09-21T11:12:55.143Z,1022.43
2017-09-21T11:14:16.761Z,1022.46
2017-09-21T11:15:39.261Z,1022.42
2017-09-21T11:17:01.092Z,1022.4
2017-09-21T11:18:23.504Z,1022.4
2017-09-21T11:19:45.093Z,1022.41
2017-09-21T11:21:06.643Z,1022.38
2017-09-21T11:22:28.155Z,1022.4
2017-09-21T11:23:50.665Z,1022.4
2017-09-21T11:25:13.182Z,1022.37
2017-09-21T11:26:35.443Z,1022.37
2017-09-21T11:27:57.294Z,1022.31
2017-09-21T11:29:19.427Z,1022.37
2017-09-21T11:30:41.545Z,1022.38
2017-09-21T11:32:03.368Z,1022.4
2017-09-21T11:33:25.206Z,1022.38
2017-09-21T11:34:47.633Z,1022.42
2017-09-21T11:36:09.463Z,1022.43
2017-09-21T11:37:31.604Z,1022.39
2017-09-21T11:38:54.075Z,1022.38
2017-09-21T11:40:16.298Z,1022.37
2017-09-21T11:41:38.203Z,1022.41
2017-09-21T11:43:00.038Z,1022.43
2017-09-21T11:44:22.170Z,1022.34
2017-09-21T11:45:45.109Z,1022.37
2017-09-21T11:47:07.259Z,1022.34
2017-09-21T11:48:29.753Z,1022.36
2017-09-21T11:49:51.898Z,1022.4
2017-09-21T11:51:13.375Z,1022.33
2017-09-21T11:52:35.844Z,1022.34
2017-09-21T11:53:57.664Z,1022.29
2017-09-21T11:55:19.478Z,1022.27
2017-09-21T11:56:42.249Z,1022.29
2017-09-21T11:58:04.255Z,1022.27
2017-09-21T11:59:26.138Z,1022.29
2017-09-21T12:00:48.014Z,1022.27
2017-09-21T12:02:10.255Z,1022.28
2017-09-21T12:03:32.382Z,1022.25
2017-09-21T12:04:54.544Z,1022.21
2017-09-21T12:06:17.026Z,1022.21
2017-09-21T12:07:39.780Z,1022.2
2017-09-21T12:09:02.267Z,1022.24
2017-09-21T12:10:24.783Z,1022.22
2017-09-21T12:11:46.933Z,1022.21
2017-09-21T12:13:09.103Z,1022.16
2017-09-21T12:14:31.261Z,1022.13
2017-09-21T12:15:53.489Z,1022.13
2017-09-21T12:17:14.344Z,1022.16
2017-09-21T12:18:36.743Z,1022.16
2017-09-21T12:19:58.566Z,1022.13
2017-09-21T12:21:20.730Z,1022.14
2017-09-21T12:22:42.564Z,1022.2
2017-09-21T12:24:05.082Z,1022.17
2017-09-21T12:25:27.266Z,1022.17
2017-09-21T12:26:48.782Z,1022.15
2017-09-21T12:28:10.266Z,1022.18
2017-09-21T12:29:33.099Z,1022.14
2017-09-21T12:30:54.611Z,1022.13
2017-09-21T12:32:16.956Z,1022.16
2017-09-21T12:33:38.776Z,1022.14
2017-09-21T12:35:00.946Z,1022.14
2017-09-21T12:36:23.075Z,1022.15
2017-09-21T12:37:44.976Z,1022.17
2017-09-21T12:39:06.581Z,1022.17
2017-09-21T12:40:28.734Z,1022.14
2017-09-21T12:41:50.885Z,1022.16
2017-09-21T12:43:13.354Z,1022.17
2017-09-21T12:44:35.642Z,1022.13
2017-09-21T12:45:58.130Z,1022.11
2017-09-21T12:47:20.358Z,1022.12
2017-09-21T12:48:41.857Z,1022.11
2017-09-21T12:50:03.725Z,1022.09
2017-09-21T12:51:26.546Z,1022.11
2017-09-21T12:52:48.682Z,1022.12
2017-09-21T12:54:10.523Z,1022.11
2017-09-21T12:55:32.348Z,1022.11
2017-09-21T12:56:54.483Z,1022.14
2017-09-21T12:58:16.619Z,1022.13
2017-09-21T12:59:37.804Z,1022.13
2017-09-21T13:01:00.004Z,1022.17
2017-09-21T13:02:22.566Z,1022.12
2017-09-21T13:03:44.699Z,1022.1
2017-09-21T13:05:06.302Z,1022.07
2017-09-21T13:06:28.143Z,1022.08
2017-09-21T13:07:50.344Z,1022.06
2017-09-21T13:09:12.860Z,1022.05
2017-09-21T13:10:35.320Z,1022.07
2017-09-21T13:11:56.834Z,1022.04
2017-09-21T13:13:19.512Z,1022.09
2017-09-21T13:14:41.644Z,1022.04
2017-09-21T13:16:04.114Z,1022.02
2017-09-21T13:17:26.594Z,1022.05
2017-09-21T13:18:48.890Z,1022.06
2017-09-21T13:20:11.066Z,1022.03
2017-09-21T13:21:33.222Z,1022.07
2017-09-21T13:22:55.374Z,1022.07
2017-09-21T13:24:17.543Z,1022.07
2017-09-21T13:25:39.846Z,1022.08
2017-09-21T13:27:01.685Z,1022.08
2017-09-21T13:28:24.236Z,1022.06
2017-09-21T13:29:46.362Z,1022.03
2017-09-21T13:31:08.236Z,1022.03
2017-09-21T13:32:30.742Z,1022.03
2017-09-21T13:33:53.258Z,1022.04
2017-09-21T13:35:15.746Z,1022.08
2017-09-21T13:36:37.562Z,1022.05
2017-09-21T13:37:59.740Z,1022.06
2017-09-21T13:39:21.573Z,1022.1
2017-09-21T13:40:43.855Z,1022.13
2017-09-21T13:42:06.397Z,1022.11
2017-09-21T13:43:28.557Z,1022.11
2017-09-21T13:44:50.724Z,1022.09
2017-09-21T13:46:13.213Z,1022.1
2017-09-21T13:47:35.388Z,1022.07
2017-09-21T13:48:57.232Z,1022.08
2017-09-21T13:50:18.746Z,1022.1
2017-09-21T13:51:41.157Z,1022.08
2017-09-21T13:53:02.364Z,1022.09
2017-09-21T13:54:24.842Z,1022.1
2017-09-21T13:55:46.340Z,1022.12
2017-09-21T13:57:08.463Z,1022.12
2017-09-21T13:58:30.941Z,1022.13
2017-09-21T13:59:53.096Z,1022.09
2017-09-21T14:01:15.255Z,1022.08
2017-09-21T14:02:37.382Z,1022.1
2017-09-21T14:03:59.264Z,1022.06
2017-09-21T14:05:21.896Z,1022.08
2017-09-21T14:06:44.353Z,1022.12
2017-09-21T14:08:07.191Z,1022.11
2017-09-21T14:09:29.442Z,1022.08
2017-09-21T14:10:51.933Z,1022.1
2017-09-21T14:12:14.098Z,1022.09
2017-09-21T14:13:36.970Z,1022.11
2017-09-21T14:14:58.784Z,1022.04
2017-09-21T14:16:21.153Z,1022.1
2017-09-21T14:17:43.303Z,1022.05
2017-09-21T14:19:06.148Z,1022.08
2017-09-21T14:20:28.365Z,1022.08
2017-09-21T14:21:50.867Z,1022.07
2017-09-21T14:23:13.053Z,1022.08
2017-09-21T14:24:35.572Z,1022.08
2017-09-21T14:25:58.086Z,1022.02
2017-09-21T14:27:20.293Z,1022.01
2017-09-21T14:28:42.791Z,1022.04
2017-09-21T14:30:05.247Z,1022.01
2017-09-21T14:31:27.426Z,1022
2017-09-21T14:32:49.946Z,1022
2017-09-21T14:34:12.157Z,1022.01
2017-09-21T14:35:34.992Z,1021.99
2017-09-21T14:36:57.145Z,1021.97
2017-09-21T14:38:19.638Z,1021.98
2017-09-21T14:39:42.224Z,1021.98
2017-09-21T14:41:04.433Z,1021.95
2017-09-21T14:42:25.644Z,1021.95
2017-09-21T14:43:48.228Z,1021.97
2017-09-21T14:45:10.725Z,1021.93
2017-09-21T14:46:33.213Z,1021.95
2017-09-21T14:47:55.721Z,1021.86
2017-09-21T14:49:17.912Z,1021.9
2017-09-21T14:50:40.102Z,1021.89
2017-09-21T14:52:02.534Z,1021.91
2017-09-21T14:53:24.723Z,1021.97
2017-09-21T14:54:46.560Z,1021.92
2017-09-21T14:56:09.070Z,1021.95
2017-09-21T14:57:31.570Z,1021.98
2017-09-21T14:58:54.173Z,1021.99
2017-09-21T15:00:16.672Z,1022
2017-09-21T15:01:38.937Z,1021.99
2017-09-21T15:03:01.394Z,1021.95
2017-09-21T15:04:23.874Z,1021.97
2017-09-21T15:05:45.735Z,1021.98
2017-09-21T15:07:08.304Z,1021.93
2017-09-21T15:08:30.433Z,1021.98
2017-09-21T15:09:51.946Z,1021.96
2017-09-21T15:11:14.104Z,1021.95
2017-09-21T15:12:36.287Z,1021.93
2017-09-21T15:13:58.850Z,1021.9
2017-09-21T15:15:21.003Z,1021.91
2017-09-21T15:16:42.925Z,1021.87
2017-09-21T15:18:05.413Z,1021.87
2017-09-21T15:19:28.196Z,1021.87
2017-09-21T15:20:50.026Z,1021.92
2017-09-21T15:22:11.779Z,1021.93
2017-09-21T15:23:33.993Z,1021.89
2017-09-21T15:24:56.774Z,1021.84
2017-09-21T15:26:18.631Z,1021.88
2017-09-21T15:27:40.863Z,1021.89
2017-09-21T15:29:03.034Z,1021.88
2017-09-21T15:30:25.591Z,1021.91
2017-09-21T15:31:47.738Z,1021.88
2017-09-21T15:33:09.897Z,1021.86
2017-09-21T15:34:32.369Z,1021.91
2017-09-21T15:35:54.463Z,1021.92
2017-09-21T15:37:16.974Z,1021.9
2017-09-21T15:38:39.489Z,1021.88
2017-09-21T15:40:02.067Z,1021.87
2017-09-21T15:41:24.894Z,1021.83
2017-09-21T15:42:47.380Z,1021.87
2017-09-21T15:44:09.856Z,1021.81
2017-09-21T15:45:31.693Z,1021.83
2017-09-21T15:46:54.543Z,1021.84
2017-09-21T15:48:16.702Z,1021.83
2017-09-21T15:49:38.864Z,1021.78
2017-09-21T15:51:01.022Z,1021.77
2017-09-21T15:52:23.223Z,1021.77
2017-09-21T15:53:45.393Z,1021.79
2017-09-21T15:55:07.935Z,1021.78
2017-09-21T15:56:30.106Z,1021.83
2017-09-21T15:57:52.564Z,1021.79
2017-09-21T15:59:14.726Z,1021.82
2017-09-21T16:00:36.922Z,1021.79
2017-09-21T16:01:58.931Z,1021.84
2017-09-21T16:03:21.729Z,1021.8
2017-09-21T16:04:43.947Z,1021.79
2017-09-21T16:06:06.134Z,1021.78
2017-09-21T16:07:28.305Z,1021.79
2017-09-21T16:08:51.086Z,1021.74
2017-09-21T16:10:13.285Z,1021.76
2017-09-21T16:11:35.444Z,1021.79
2017-09-21T16:12:57.913Z,1021.75
2017-09-21T16:14:20.125Z,1021.74
2017-09-21T16:15:41.983Z,1021.76
2017-09-21T16:17:04.325Z,1021.74
2017-09-21T16:18:26.877Z,1021.77
2017-09-21T16:19:49.394Z,1021.74
2017-09-21T16:21:11.554Z,1021.77
2017-09-21T16:22:34.051Z,1021.75
2017-09-21T16:23:56.279Z,1021.78
2017-09-21T16:25:18.752Z,1021.78
2017-09-21T16:26:40.597Z,1021.75
2017-09-21T16:28:03.091Z,1021.74
2017-09-21T16:29:25.645Z,1021.71
2017-09-21T16:30:48.494Z,1021.71
2017-09-21T16:32:10.976Z,1021.72
2017-09-21T16:33:33.535Z,1021.75
2017-09-21T16:34:55.787Z,1021.71
2017-09-21T16:36:18.276Z,1021.7
2017-09-21T16:37:40.440Z,1021.72